createdAt,value
2019-04-30T00:02:40.940Z,96959.02
2019-04-30T00:05:37.716Z,96957.72
2019-04-30T00:08:38.999Z,96957.26
2019-04-30T00:11:31.876Z,96954.21
2019-04-30T00:14:36.994Z,96960.58
2019-04-30T00:17:25.718Z,96959.32
2019-04-30T00:20:22.169Z,96959.32
2019-04-30T00:23:22.566Z,96957.26
2019-04-30T00:26:17.062Z,96958.13
2019-04-30T00:29:12.399Z,96947.13
2019-04-30T00:32:08.166Z,96949.66
2019-04-30T00:35:07.022Z,96952.55
2019-04-30T00:38:01.338Z,96948.77
2019-04-30T00:41:01.910Z,96942.46
2019-04-30T00:43:52.716Z,96934.46
2019-04-30T00:46:50.384Z,96928.58
2019-04-30T00:49:47.336Z,96927.78
2019-04-30T00:52:45.668Z,96921.48
2019-04-30T00:55:44.237Z,96926.89
2019-04-30T00:58:37.343Z,96931.05
2019-04-30T01:01:50.751Z,96925.11
2019-04-30T01:05:00.188Z,96928.58
2019-04-30T01:07:55.029Z,96929.05
2019-04-30T01:10:51.144Z,96919.38
2019-04-30T01:13:52.588Z,96910.92
2019-04-30T01:16:44.517Z,96915.59
2019-04-30T01:19:41.381Z,96908.03
2019-04-30T01:22:38.756Z,96904.25
2019-04-30T01:25:34.588Z,96904.25
2019-04-30T01:28:31.193Z,96901.78
2019-04-30T01:31:31.630Z,96906.02
2019-04-30T01:34:24.178Z,96903.55
2019-04-30T01:37:24.665Z,96901.89
2019-04-30T01:40:16.254Z,96899.40
2019-04-30T01:43:11.849Z,96891.80
2019-04-30T01:46:13.917Z,96883.77
2019-04-30T01:49:06.057Z,96877.90
2019-04-30T01:52:02.875Z,96876.66
2019-04-30T01:54:59.302Z,96870.75
2019-04-30T01:58:15.469Z,96872.41
2019-04-30T02:01:14.482Z,96871.64
2019-04-30T02:04:10.044Z,96867.91
2019-04-30T02:07:06.388Z,96865.77
2019-04-30T02:10:03.264Z,96873.33
2019-04-30T02:12:59.881Z,96881.36
2019-04-30T02:15:56.495Z,96879.21
2019-04-30T02:18:53.123Z,96880.02
2019-04-30T02:21:49.792Z,96875.86
2019-04-30T02:24:45.451Z,96870.80
2019-04-30T02:27:41.439Z,96869.14
2019-04-30T02:30:40.480Z,96863.23
2019-04-30T02:33:34.350Z,96879.21
2019-04-30T02:36:54.149Z,96884.69
2019-04-30T02:39:50.744Z,96889.30
2019-04-30T02:42:49.766Z,96889.73
2019-04-30T02:45:43.165Z,96884.34
2019-04-30T02:48:40.931Z,96884.41
2019-04-30T02:51:36.464Z,96883.56
2019-04-30T02:54:39.831Z,96872.64
2019-04-30T02:57:35.374Z,96875.25
2019-04-30T03:00:33.289Z,96865.92
2019-04-30T03:03:29.996Z,96863.43
2019-04-30T03:06:25.209Z,96865.15
2019-04-30T03:09:21.442Z,96865.20
2019-04-30T03:12:17.107Z,96855.53
2019-04-30T03:15:14.795Z,96851.75
2019-04-30T03:18:24.277Z,96857.61
2019-04-30T03:21:25.839Z,96860.10
2019-04-30T03:24:21.621Z,96863.43
2019-04-30T03:27:20.655Z,96868.50
2019-04-30T03:30:15.900Z,96868.56
2019-04-30T03:33:13.517Z,96857.66
2019-04-30T03:36:12.548Z,96855.59
2019-04-30T03:39:06.123Z,96847.53
2019-04-30T03:42:02.697Z,96850.89
2019-04-30T03:44:59.276Z,96856.80
2019-04-30T03:47:54.477Z,96854.27
2019-04-30T03:50:56.562Z,96848.42
2019-04-30T03:53:50.182Z,96852.69
2019-04-30T03:56:44.666Z,96850.19
2019-04-30T03:59:41.261Z,96854.41
2019-04-30T04:02:50.111Z,96848.93
2019-04-30T04:05:59.559Z,96846.83
2019-04-30T04:09:12.736Z,96848.50
2019-04-30T04:12:23.586Z,96846.41
2019-04-30T04:15:21.201Z,96852.74
2019-04-30T04:18:17.054Z,96859.91
2019-04-30T04:21:20.788Z,96855.72
2019-04-30T04:24:15.691Z,96857.87
2019-04-30T04:27:13.600Z,96849.49
2019-04-30T04:30:10.612Z,96856.20
2019-04-30T04:33:05.825Z,96852.91
2019-04-30T04:36:01.323Z,96855.45
2019-04-30T04:39:00.102Z,96860.52
2019-04-30T04:41:55.925Z,96852.95
2019-04-30T04:44:52.699Z,96855.09
2019-04-30T04:47:50.411Z,96856.81
2019-04-30T04:50:44.616Z,96859.82
2019-04-30T04:53:40.872Z,96863.23
2019-04-30T04:56:39.859Z,96864.11
2019-04-30T04:59:33.401Z,96857.84
2019-04-30T05:02:50.625Z,96859.11
2019-04-30T05:05:47.185Z,96859.54
2019-04-30T05:08:41.800Z,96859.54
2019-04-30T05:11:39.556Z,96868.50
2019-04-30T05:14:35.078Z,96875.28
2019-04-30T05:17:32.815Z,96877.39
2019-04-30T05:20:29.659Z,96872.80
2019-04-30T05:23:25.918Z,96880.42
2019-04-30T05:26:22.911Z,96880.06
2019-04-30T05:29:19.296Z,96878.42
2019-04-30T05:32:16.635Z,96879.33
2019-04-30T05:35:13.312Z,96876.42
2019-04-30T05:38:09.290Z,96878.12
2019-04-30T05:41:05.438Z,96883.17
2019-04-30T05:44:03.162Z,96886.17
2019-04-30T05:46:59.236Z,96879.88
2019-04-30T05:49:55.487Z,96885.82
2019-04-30T05:52:51.999Z,96887.56
2019-04-30T05:55:49.926Z,96884.20
2019-04-30T05:58:46.225Z,96882.58
2019-04-30T06:01:48.085Z,96882.73
2019-04-30T06:04:38.776Z,96880.29
2019-04-30T06:07:36.383Z,96878.77
2019-04-30T06:10:46.111Z,96880.52
2019-04-30T06:13:53.001Z,96879.80
2019-04-30T06:16:49.264Z,96874.78
2019-04-30T06:19:45.483Z,96876.58
2019-04-30T06:22:44.079Z,96881.68
2019-04-30T06:25:55.790Z,96870.80
2019-04-30T06:28:36.506Z,96875.13
2019-04-30T06:31:37.249Z,96878.53
2019-04-30T06:34:29.594Z,96881.94
2019-04-30T06:37:26.156Z,96882.74
2019-04-30T06:40:21.163Z,96881.97
2019-04-30T06:43:19.105Z,96880.70
2019-04-30T06:46:14.717Z,96892.97
2019-04-30T06:49:11.268Z,96890.44
2019-04-30T06:52:18.185Z,96895.50
2019-04-30T06:55:03.728Z,96896.34
2019-04-30T06:58:12.192Z,96895.46
2019-04-30T07:00:59.587Z,96896.73
2019-04-30T07:03:58.861Z,96900.94
2019-04-30T07:06:52.203Z,96903.93
2019-04-30T07:10:05.421Z,96909.91
2019-04-30T07:13:15.067Z,96915.05
2019-04-30T07:16:11.691Z,96914.74
2019-04-30T07:19:09.329Z,96919.48
2019-04-30T07:22:04.909Z,96921.36
2019-04-30T07:25:01.485Z,96921.56
2019-04-30T07:27:59.341Z,96918.37
2019-04-30T07:31:07.541Z,96915.19
2019-04-30T07:33:53.810Z,96907.88
2019-04-30T07:36:55.153Z,96904.27
2019-04-30T07:39:43.763Z,96897.67
2019-04-30T07:42:44.845Z,96898.98
2019-04-30T07:45:39.241Z,96895.73
2019-04-30T07:48:34.456Z,96892.38
2019-04-30T07:51:31.826Z,96896.64
2019-04-30T07:54:27.520Z,96897.00
2019-04-30T07:57:23.154Z,96905.72
2019-04-30T08:00:19.982Z,96902.13
2019-04-30T08:03:21.417Z,96909.66
2019-04-30T08:06:19.028Z,96916.77
2019-04-30T08:09:14.216Z,96919.73
2019-04-30T08:12:11.298Z,96925.59
2019-04-30T08:15:09.498Z,96933.09
2019-04-30T08:18:05.925Z,96927.98
2019-04-30T08:21:00.957Z,96931.78
2019-04-30T08:24:00.759Z,96936.39
2019-04-30T08:26:53.644Z,96935.24
2019-04-30T08:29:50.206Z,96930.63
2019-04-30T08:32:45.832Z,96934.97
2019-04-30T08:35:43.675Z,96925.50
2019-04-30T08:38:39.552Z,96916.89
2019-04-30T08:41:36.016Z,96906.95
2019-04-30T08:44:39.637Z,96906.98
2019-04-30T08:47:36.021Z,96903.80
2019-04-30T08:50:33.046Z,96897.21
2019-04-30T08:53:32.873Z,96898.97
2019-04-30T08:56:25.050Z,96910.78
2019-04-30T08:59:20.892Z,96914.19
2019-04-30T09:02:19.541Z,96918.45
2019-04-30T09:05:15.483Z,96911.65
2019-04-30T09:08:12.078Z,96920.20
2019-04-30T09:11:22.088Z,96935.43
2019-04-30T09:14:03.695Z,96932.16
2019-04-30T09:17:01.285Z,96936.44
2019-04-30T09:19:58.502Z,96934.83
2019-04-30T09:22:53.312Z,96922.30
2019-04-30T09:25:50.917Z,96941.77
2019-04-30T09:28:49.473Z,96927.30
2019-04-30T09:31:43.458Z,96936.91
2019-04-30T09:34:40.421Z,96938.87
2019-04-30T09:37:36.505Z,96941.31
2019-04-30T09:40:32.677Z,96944.67
2019-04-30T09:43:29.081Z,96943.47
2019-04-30T09:46:27.186Z,96937.59
2019-04-30T09:49:23.517Z,96932.97
2019-04-30T09:52:19.965Z,96935.17
2019-04-30T09:55:16.766Z,96939.05
2019-04-30T09:58:17.192Z,96934.06
2019-04-30T10:01:09.519Z,96929.11
2019-04-30T10:04:04.453Z,96917.36
2019-04-30T10:07:01.976Z,96922.54
2019-04-30T10:09:59.804Z,96924.30
2019-04-30T10:12:55.268Z,96910.70
2019-04-30T10:16:12.584Z,96911.56
2019-04-30T10:19:10.285Z,96913.66
2019-04-30T10:22:05.310Z,96908.92
2019-04-30T10:25:01.855Z,96913.18
2019-04-30T10:28:10.820Z,96918.27
2019-04-30T10:31:07.207Z,96916.59
2019-04-30T10:34:04.025Z,96902.14
2019-04-30T10:37:02.891Z,96908.52
2019-04-30T10:39:59.613Z,96908.10
2019-04-30T10:42:54.203Z,96908.97
2019-04-30T10:45:52.773Z,96897.91
2019-04-30T10:48:47.763Z,96896.17
2019-04-30T10:51:44.019Z,96897.87
2019-04-30T10:54:39.180Z,96890.28
2019-04-30T10:57:35.342Z,96890.28
2019-04-30T11:00:40.880Z,96892.80
2019-04-30T11:03:39.133Z,96892.30
2019-04-30T11:06:34.240Z,96886.72
2019-04-30T11:09:31.166Z,96890.11
2019-04-30T11:12:26.371Z,96889.75
2019-04-30T11:15:22.862Z,96889.34
2019-04-30T11:18:22.334Z,96892.34
2019-04-30T11:21:19.374Z,96898.31
2019-04-30T11:24:13.628Z,96888.97
2019-04-30T11:27:11.517Z,96882.57
2019-04-30T11:30:18.539Z,96888.52
2019-04-30T11:33:03.560Z,96887.69
2019-04-30T11:36:05.637Z,96892.73
2019-04-30T11:39:08.599Z,96893.45
2019-04-30T11:42:05.235Z,96887.39
2019-04-30T11:45:02.142Z,96890.85
2019-04-30T11:48:02.860Z,96876.30
2019-04-30T11:51:03.883Z,96879.57
2019-04-30T11:53:59.570Z,96880.44
2019-04-30T11:56:56.068Z,96877.08
2019-04-30T11:59:51.242Z,96876.23
2019-04-30T12:02:55.650Z,96875.99
2019-04-30T12:05:52.292Z,96872.66
2019-04-30T12:09:04.252Z,96873.66
2019-04-30T12:12:01.057Z,96883.63
2019-04-30T12:14:56.620Z,96882.20
2019-04-30T12:17:54.316Z,96871.74
2019-04-30T12:20:49.860Z,96874.91
2019-04-30T12:23:46.504Z,96875.83
2019-04-30T12:26:43.397Z,96880.27
2019-04-30T12:29:40.370Z,96876.84
2019-04-30T12:32:39.312Z,96876.70
2019-04-30T12:35:33.300Z,96872.15
2019-04-30T12:38:30.920Z,96871.11
2019-04-30T12:41:26.705Z,96867.63
2019-04-30T12:44:23.091Z,96861.73
2019-04-30T12:47:23.490Z,96864.88
2019-04-30T12:50:43.390Z,96859.35
2019-04-30T12:53:47.083Z,96862.65
2019-04-30T12:56:55.244Z,96860.70
2019-04-30T12:59:51.136Z,96863.42
2019-04-30T13:02:46.958Z,96857.75
2019-04-30T13:05:45.422Z,96862.63
2019-04-30T13:08:42.298Z,96863.78
2019-04-30T13:11:40.521Z,96863.78
2019-04-30T13:14:39.430Z,96863.21
2019-04-30T13:17:34.493Z,96865.56
2019-04-30T13:20:30.115Z,96859.77
2019-04-30T13:23:25.812Z,96859.42
2019-04-30T13:26:22.434Z,96859.28
2019-04-30T13:29:25.503Z,96862.64
2019-04-30T13:32:30.253Z,96859.97
2019-04-30T13:35:20.130Z,96857.20
2019-04-30T13:38:22.171Z,96858.48
2019-04-30T13:41:33.720Z,96853.36
2019-04-30T13:44:49.396Z,96846.67
2019-04-30T13:47:44.698Z,96844.03
2019-04-30T13:50:40.515Z,96840.23
2019-04-30T13:53:37.185Z,96847.06
2019-04-30T13:56:33.012Z,96841.48
2019-04-30T13:59:29.490Z,96836.67
2019-04-30T14:02:25.791Z,96836.81
2019-04-30T14:05:27.535Z,96828.00
2019-04-30T14:08:35.669Z,96829.77
2019-04-30T14:11:30.997Z,96833.85
2019-04-30T14:14:29.220Z,96831.91
2019-04-30T14:17:22.054Z,96833.69
2019-04-30T14:20:19.913Z,96827.27
2019-04-30T14:23:15.542Z,96830.37
2019-04-30T14:26:12.259Z,96833.22
2019-04-30T14:29:08.788Z,96838.25
2019-04-30T14:32:05.425Z,96831.33
2019-04-30T14:35:02.176Z,96837.04
2019-04-30T14:37:59.614Z,96826.22
2019-04-30T14:40:56.696Z,96827.17
2019-04-30T14:43:56.159Z,96828.53
2019-04-30T14:47:05.233Z,96822.58
2019-04-30T14:50:09.913Z,96823.34
2019-04-30T14:53:21.901Z,96822.92
2019-04-30T14:56:36.866Z,96821.94
2019-04-30T14:59:44.727Z,96831.30
2019-04-30T15:02:45.163Z,96830.23
2019-04-30T15:05:48.390Z,96824.05
2019-04-30T15:08:42.435Z,96832.91
2019-04-30T15:11:42.166Z,96828.05
2019-04-30T15:14:38.825Z,96832.75
2019-04-30T15:17:35.156Z,96822.83
2019-04-30T15:20:32.693Z,96815.62
2019-04-30T15:23:35.085Z,96814.05
2019-04-30T15:26:34.769Z,96812.73
2019-04-30T15:29:32.353Z,96811.86
2019-04-30T15:32:28.619Z,96808.09
2019-04-30T15:35:24.688Z,96808.30
2019-04-30T15:38:29.121Z,96811.94
2019-04-30T15:41:23.087Z,96802.84
2019-04-30T15:44:20.784Z,96810.11
2019-04-30T15:47:16.298Z,96806.54
2019-04-30T15:50:14.351Z,96814.68
2019-04-30T15:53:11.234Z,96807.80
2019-04-30T15:56:12.145Z,96817.59
2019-04-30T15:59:28.857Z,96812.83
2019-04-30T16:02:56.998Z,96809.52
2019-04-30T16:05:51.246Z,96821.35
2019-04-30T16:08:50.444Z,96812.94
2019-04-30T16:12:05.934Z,96811.59
2019-04-30T16:15:01.643Z,96810.81
2019-04-30T16:17:58.821Z,96809.95
2019-04-30T16:20:56.024Z,96801.87
2019-04-30T16:23:52.699Z,96796.15
2019-04-30T16:26:52.564Z,96806.28
2019-04-30T16:29:46.054Z,96802.50
2019-04-30T16:32:42.928Z,96806.19
2019-04-30T16:35:37.880Z,96802.17
2019-04-30T16:38:35.679Z,96802.43
2019-04-30T16:41:32.289Z,96801.63
2019-04-30T16:44:29.109Z,96796.69
2019-04-30T16:47:25.434Z,96793.40
2019-04-30T16:50:20.899Z,96789.97
2019-04-30T16:53:17.970Z,96790.08
2019-04-30T16:56:13.269Z,96785.88
2019-04-30T16:59:14.877Z,96794.17
2019-04-30T17:02:10.405Z,96802.79
2019-04-30T17:05:24.987Z,96803.33
2019-04-30T17:08:41.565Z,96814.47
2019-04-30T17:11:50.345Z,96812.35
2019-04-30T17:14:46.332Z,96816.30
2019-04-30T17:17:42.680Z,96825.01
2019-04-30T17:20:39.380Z,96829.34
2019-04-30T17:23:35.003Z,96824.75
2019-04-30T17:26:35.765Z,96831.64
2019-04-30T17:29:32.479Z,96827.83
2019-04-30T17:32:30.328Z,96832.08
2019-04-30T17:35:25.846Z,96827.89
2019-04-30T17:38:22.393Z,96833.02
2019-04-30T17:41:20.352Z,96828.80
2019-04-30T17:44:15.628Z,96832.22
2019-04-30T17:47:12.237Z,96841.61
2019-04-30T17:50:11.728Z,96834.85
2019-04-30T17:53:09.383Z,96832.34
2019-04-30T17:56:04.966Z,96834.08
2019-04-30T17:59:01.038Z,96843.46
2019-04-30T18:02:02.721Z,96850.28
2019-04-30T18:05:00.480Z,96861.37
2019-04-30T18:07:56.434Z,96858.00
2019-04-30T18:10:53.228Z,96859.69
2019-04-30T18:13:51.205Z,96855.46
2019-04-30T18:16:48.645Z,96862.30
2019-04-30T18:19:52.603Z,96865.72
2019-04-30T18:23:04.189Z,96864.85
2019-04-30T18:26:02.398Z,96869.98
2019-04-30T18:28:59.875Z,96870.82
2019-04-30T18:31:55.518Z,96872.48
2019-04-30T18:34:52.143Z,96871.66
2019-04-30T18:37:48.792Z,96883.52
2019-04-30T18:40:45.569Z,96878.00
2019-04-30T18:43:44.235Z,96885.20
2019-04-30T18:46:40.049Z,96885.23
2019-04-30T18:49:37.063Z,96885.63
2019-04-30T18:52:33.395Z,96891.55
2019-04-30T18:55:29.915Z,96891.14
2019-04-30T18:58:37.495Z,96893.25
2019-04-30T19:01:22.436Z,96889.44
2019-04-30T19:04:19.430Z,96892.81
2019-04-30T19:07:27.729Z,96900.41
2019-04-30T19:10:32.858Z,96894.48
2019-04-30T19:13:47.143Z,96899.56
2019-04-30T19:16:57.245Z,96901.66
2019-04-30T19:20:05.616Z,96906.30
2019-04-30T19:23:03.632Z,96905.86
2019-04-30T19:25:59.730Z,96912.18
2019-04-30T19:28:56.459Z,96913.41
2019-04-30T19:31:56.743Z,96912.55
2019-04-30T19:34:53.596Z,96917.19
2019-04-30T19:37:50.315Z,96921.40
2019-04-30T19:40:46.104Z,96923.08
2019-04-30T19:43:44.612Z,96926.03
2019-04-30T19:46:42.214Z,96930.70
2019-04-30T19:49:50.365Z,96937.45
2019-04-30T19:52:47.192Z,96938.66
2019-04-30T19:55:43.943Z,96942.05
2019-04-30T19:58:52.538Z,96942.45
2019-04-30T20:01:36.641Z,96949.25
2019-04-30T20:04:36.804Z,96950.93
2019-04-30T20:07:31.418Z,96944.13
2019-04-30T20:10:28.761Z,96946.66
2019-04-30T20:13:33.810Z,96947.07
2019-04-30T20:16:20.705Z,96955.95
2019-04-30T20:19:17.156Z,96946.61
2019-04-30T20:22:14.081Z,96949.56
2019-04-30T20:25:11.508Z,96952.54
2019-04-30T20:28:07.374Z,96943.19
2019-04-30T20:31:04.111Z,96941.06
2019-04-30T20:34:01.521Z,96946.14
2019-04-30T20:36:58.325Z,96947.41
2019-04-30T20:40:01.484Z,96949.08
2019-04-30T20:42:58.563Z,96948.22
2019-04-30T20:45:55.607Z,96953.28
2019-04-30T20:48:51.024Z,96954.11
2019-04-30T20:51:55.064Z,96957.50
2019-04-30T20:54:45.016Z,96955.36
2019-04-30T20:57:41.846Z,96949.87
2019-04-30T21:00:37.665Z,96954.08
2019-04-30T21:03:34.864Z,96960.83
2019-04-30T21:06:31.227Z,96965.91
2019-04-30T21:09:26.762Z,96959.16
2019-04-30T21:12:23.534Z,96966.78
2019-04-30T21:15:20.410Z,96968.45
2019-04-30T21:18:17.097Z,96970.98
2019-04-30T21:21:12.826Z,96963.36
2019-04-30T21:24:08.917Z,96963.36
2019-04-30T21:27:09.685Z,96966.72
2019-04-30T21:30:05.286Z,96968.37
2019-04-30T21:33:13.190Z,96967.49
2019-04-30T21:36:21.242Z,96966.18
2019-04-30T21:39:19.982Z,96961.53
2019-04-30T21:42:12.830Z,96968.69
2019-04-30T21:45:10.749Z,96966.56
2019-04-30T21:48:09.121Z,96960.62
2019-04-30T21:51:04.076Z,96963.16
2019-04-30T21:54:00.906Z,96954.24
2019-04-30T21:56:56.722Z,96957.20
2019-04-30T21:59:53.444Z,96961.86
2019-04-30T22:02:50.059Z,96955.89
2019-04-30T22:05:46.595Z,96963.06
2019-04-30T22:08:42.200Z,96962.20
2019-04-30T22:11:42.743Z,96961.38
2019-04-30T22:14:39.069Z,96956.25
2019-04-30T22:17:34.934Z,96958.77
2019-04-30T22:20:31.750Z,96958.77
2019-04-30T22:23:28.448Z,96965.51
2019-04-30T22:26:26.528Z,96949.80
2019-04-30T22:29:22.416Z,96952.31
2019-04-30T22:32:18.091Z,96956.52
2019-04-30T22:35:32.271Z,96956.84
2019-04-30T22:38:29.501Z,96959.72
2019-04-30T22:41:26.234Z,96953.99
2019-04-30T22:44:21.858Z,96953.99
2019-04-30T22:47:25.533Z,96953.07
2019-04-30T22:50:22.717Z,96949.19
2019-04-30T22:53:17.593Z,96951.18
2019-04-30T22:56:15.256Z,96941.83
2019-04-30T22:59:10.850Z,96947.27
2019-04-30T23:02:24.527Z,96943.81
2019-04-30T23:05:21.382Z,96947.52
2019-04-30T23:08:17.860Z,96948.24
2019-04-30T23:11:14.463Z,96938.02
2019-04-30T23:14:10.068Z,96938.77
2019-04-30T23:17:07.553Z,96927.28
2019-04-30T23:20:03.279Z,96934.36
2019-04-30T23:23:00.129Z,96932.57
2019-04-30T23:25:55.207Z,96940.12
2019-04-30T23:28:51.712Z,96940.48
2019-04-30T23:31:48.481Z,96937.85
2019-04-30T23:34:44.015Z,96934.41
2019-04-30T23:37:41.799Z,96926.30
2019-04-30T23:40:42.636Z,96927.94
2019-04-30T23:43:39.283Z,96925.36
2019-04-30T23:46:38.274Z,96921.05
2019-04-30T23:49:35.149Z,96920.10
2019-04-30T23:52:31.961Z,96913.24
2019-04-30T23:55:27.677Z,96919.11
2019-04-30T23:58:25.518Z,96919.49
